Time;durP1;ratioP1;P1;durP2;ratioP2;P2;SDS_P1;SDS_P2;PMS_P1;PMS_P2;Temp;Humidity;BMP_temperature;BMP_pressure;BME280_temperature;BME280_humidity;BME280_pressure;Samples;Min_cycle;Max_cycle;Signal;HPM_P1;HPM_P2
2022/12/25 00:07:48;;;;;;;0.20;0.10;;;13.20;99.90;;;;;;20872368;28;20403;-70
2022/12/25 00:17:53;;;;;;;0.20;0.03;;;13.40;99.90;;;;;;20894981;28;20406;-70
2022/12/25 00:27:58;;;;;;;0.20;0.10;;;13.00;99.90;;;;;;20959296;28;20409;-71
2022/12/25 00:38:02;;;;;;;0.20;0.00;;;12.60;99.90;;;;;;20901210;28;20408;-71
2022/12/25 00:48:07;;;;;;;0.20;0.10;;;13.60;99.90;;;;;;20992822;28;20421;-72
2022/12/25 00:58:11;;;;;;;0.20;0.10;;;13.40;99.90;;;;;;20970091;28;20410;-71
2022/12/25 01:08:16;;;;;;;0.20;0.10;;;13.70;99.90;;;;;;20910279;28;20395;-71
2022/12/25 01:18:22;;;;;;;0.20;0.00;;;14.20;99.90;;;;;;20927871;28;20750;-71
2022/12/25 01:28:27;;;;;;;0.20;0.10;;;14.00;99.90;;;;;;20956147;28;20395;-70
2022/12/25 01:38:31;;;;;;;0.20;0.10;;;14.70;99.90;;;;;;20917560;28;21054;-72
2022/12/25 01:48:39;;;;;;;0.20;0.10;;;13.10;99.90;;;;;;20920371;28;20765;-69
2022/12/25 01:58:43;;;;;;;0.20;0.00;;;12.60;99.90;;;;;;20915699;28;20447;-69
2022/12/25 02:08:49;;;;;;;0.20;0.10;;;12.30;99.90;;;;;;20907765;28;20937;-69
2022/12/25 02:18:57;;;;;;;0.20;0.10;;;12.30;99.90;;;;;;20971498;28;20411;-69
2022/12/25 02:29:07;;;;;;;0.20;0.05;;;11.70;99.90;;;;;;20900899;28;20424;-70
2022/12/25 03:31:25;;;;;;;0.20;0.00;;;10.90;99.90;;;;;;20981379;28;20442;-70
2022/12/25 04:43:53;;;;;;;0.20;0.10;;;10.90;99.90;;;;;;20895001;28;20425;-69
2022/12/25 04:53:58;;;;;;;0.20;0.10;;;10.70;99.90;;;;;;20869579;28;20392;-69
2022/12/25 05:04:02;;;;;;;0.20;0.00;;;10.60;99.90;;;;;;21051477;28;20400;-70
2022/12/25 05:14:07;;;;;;;0.20;0.00;;;10.70;99.90;;;;;;20986227;28;20410;-70
2022/12/25 05:24:12;;;;;;;0.20;0.00;;;10.80;99.90;;;;;;20982288;28;20942;-69
2022/12/25 05:34:17;;;;;;;0.20;0.10;;;10.50;99.90;;;;;;20990532;28;20410;-69
2022/12/25 05:44:21;;;;;;;0.20;0.10;;;10.90;99.90;;;;;;20968253;28;20410;-70
2022/12/25 05:54:26;;;;;;;0.20;0.10;;;11.60;99.90;;;;;;20989186;28;20414;-69
2022/12/25 06:04:30;;;;;;;0.20;0.10;;;11.50;99.90;;;;;;20988123;28;20810;-69
2022/12/25 06:14:35;;;;;;;0.20;0.10;;;11.90;99.90;;;;;;20884193;28;20586;-69
2022/12/25 06:24:39;;;;;;;0.20;0.10;;;11.30;99.90;;;;;;20903194;28;20416;-69
2022/12/25 06:34:45;;;;;;;0.20;0.08;;;11.10;99.90;;;;;;20901278;28;20414;-68
2022/12/25 06:44:49;;;;;;;0.20;0.10;;;11.10;99.90;;;;;;20876514;28;20471;-70
2022/12/25 06:54:55;;;;;;;0.20;0.00;;;11.00;99.90;;;;;;20901383;28;20503;-69
2022/12/25 07:05:00;;;;;;;0.20;0.00;;;11.00;99.90;;;;;;20900884;28;20518;-70
2022/12/25 07:15:06;;;;;;;0.20;0.07;;;11.20;99.90;;;;;;20899820;28;20404;-70
2022/12/25 07:25:10;;;;;;;0.20;0.00;;;11.20;99.90;;;;;;20899492;28;20450;-73
2022/12/25 07:35:15;;;;;;;0.20;0.00;;;11.00;99.90;;;;;;20892542;28;20486;-72
2022/12/25 07:45:19;;;;;;;0.20;0.00;;;11.00;99.90;;;;;;20898092;28;20914;-72
2022/12/25 07:55:24;;;;;;;0.20;0.08;;;10.80;99.90;;;;;;20897914;28;20415;-71
2022/12/25 08:05:28;;;;;;;0.20;0.10;;;10.70;99.90;;;;;;20897367;28;20453;-71
2022/12/25 08:15:34;;;;;;;0.20;0.10;;;11.10;99.90;;;;;;20895681;28;20414;-72
2022/12/25 08:25:37;;;;;;;0.20;0.00;;;12.10;99.90;;;;;;20876459;28;20396;-69
2022/12/25 08:35:43;;;;;;;0.20;0.10;;;12.70;99.90;;;;;;20877173;28;20430;-71
2022/12/25 08:45:47;;;;;;;0.20;0.10;;;13.60;99.90;;;;;;20852503;28;20391;-70
2022/12/25 08:55:59;;;;;;;0.20;0.00;;;16.20;99.90;;;;;;20854883;28;20814;-71
2022/12/25 09:06:03;;;;;;;0.20;0.10;;;17.00;99.90;;;;;;20893922;28;20436;-72
2022/12/25 09:16:10;;;;;;;0.20;0.00;;;17.30;99.90;;;;;;21061868;28;20447;-72
2022/12/25 09:26:16;;;;;;;0.20;0.10;;;17.30;99.90;;;;;;21056363;28;20424;-71
2022/12/25 09:36:22;;;;;;;0.20;0.00;;;17.60;99.90;;;;;;21073949;28;20404;-72
2022/12/25 09:46:28;;;;;;;0.20;0.00;;;18.40;99.90;;;;;;21054712;28;20396;-73
2022/12/25 09:56:41;;;;;;;0.20;0.00;;;18.80;99.90;;;;;;21054084;28;20410;-71
2022/12/25 10:06:57;;;;;;;0.20;0.00;;;19.20;99.90;;;;;;20996107;28;20972;-69
2022/12/25 10:17:15;;;;;;;0.20;0.00;;;19.10;99.90;;;;;;20897772;28;20403;-72
2022/12/25 10:27:31;;;;;;;0.20;0.10;;;19.10;99.90;;;;;;20903181;28;20861;-71
2022/12/25 10:37:37;;;;;;;0.20;0.00;;;18.80;99.90;;;;;;20902349;28;20458;-71
2022/12/25 10:47:41;;;;;;;0.20;0.10;;;20.00;99.90;;;;;;20902389;28;20406;-70
2022/12/25 10:57:47;;;;;;;0.20;0.00;;;19.90;99.90;;;;;;20997529;28;20532;-71
2022/12/25 11:07:53;;;;;;;0.20;0.00;;;19.60;99.90;;;;;;21038054;28;20408;-71
2022/12/25 11:17:58;;;;;;;0.20;0.00;;;19.50;99.90;;;;;;21053290;28;20444;-71
2022/12/25 11:28:04;;;;;;;0.20;0.00;;;19.60;99.90;;;;;;21062258;28;20499;-68
2022/12/25 11:38:10;;;;;;;0.20;0.00;;;19.70;99.90;;;;;;21058546;28;20404;-71
2022/12/25 11:48:17;;;;;;;0.20;0.10;;;19.90;99.90;;;;;;20992350;28;20415;-74
2022/12/25 11:58:26;;;;;;;0.20;0.03;;;20.50;99.90;;;;;;20925954;28;20440;-72
2022/12/25 12:08:31;;;;;;;0.20;0.00;;;19.90;99.90;;;;;;20973479;28;20904;-72
2022/12/25 12:18:37;;;;;;;0.20;0.00;;;20.50;99.90;;;;;;20914027;28;20416;-70
2022/12/25 12:28:46;;;;;;;0.20;0.00;;;20.70;99.90;;;;;;20873066;28;2082857;-71
2022/12/25 12:38:51;;;;;;;0.20;0.00;;;20.30;99.90;;;;;;20953205;28;20447;-70
2022/12/25 12:49:09;;;;;;;0.20;0.00;;;20.70;99.90;;;;;;20912564;28;20921;-73
2022/12/25 12:59:14;;;;;;;0.20;0.00;;;21.40;99.90;;;;;;20891628;28;20430;-72
2022/12/25 13:09:31;;;;;;;0.20;0.00;;;21.40;99.90;;;;;;20880852;28;20426;-72
2022/12/25 13:19:38;;;;;;;0.20;0.00;;;20.90;99.90;;;;;;20906332;28;20898;-71
2022/12/25 13:29:42;;;;;;;0.20;0.00;;;21.20;99.90;;;;;;20978521;28;20738;-72
2022/12/25 13:39:50;;;;;;;0.20;0.00;;;20.90;99.90;;;;;;20965494;28;20448;-73
2022/12/25 13:49:56;;;;;;;0.20;0.00;;;20.90;99.90;;;;;;20931326;28;20436;-71
2022/12/25 14:00:03;;;;;;;0.20;0.00;;;21.60;99.90;;;;;;20987724;28;20416;-72
2022/12/25 14:10:13;;;;;;;0.20;0.00;;;21.30;99.90;;;;;;20977888;28;20881;-72
2022/12/25 14:20:26;;;;;;;0.20;0.10;;;21.90;99.90;;;;;;20964538;28;20434;-71
2022/12/25 14:30:30;;;;;;;0.20;0.00;;;22.70;99.90;;;;;;20965752;28;20410;-72
2022/12/25 14:40:35;;;;;;;0.20;0.00;;;22.50;99.90;;;;;;20984998;28;20501;-72
2022/12/25 14:50:43;;;;;;;0.20;0.00;;;21.40;99.90;;;;;;20965701;28;20402;-74
2022/12/25 15:00:55;;;;;;;0.20;0.00;;;20.00;99.90;;;;;;20940494;28;20493;-72
2022/12/25 15:10:59;;;;;;;0.20;0.00;;;18.80;99.90;;;;;;20928206;28;20420;-72
2022/12/25 15:21:11;;;;;;;0.20;0.00;;;18.90;99.90;;;;;;20974167;28;20572;-73
2022/12/25 15:31:21;;;;;;;0.20;0.00;;;19.50;99.90;;;;;;20937580;28;20410;-72
2022/12/25 15:51:51;;;;;;;0.20;0.10;;;18.10;99.90;;;;;;20950006;28;20393;-72
2022/12/25 16:01:58;;;;;;;0.20;0.10;;;17.70;99.90;;;;;;20948631;28;20414;-72
2022/12/25 16:12:01;;;;;;;0.20;0.10;;;17.20;99.90;;;;;;20966009;28;20398;-72
2022/12/25 16:22:13;;;;;;;0.20;0.10;;;16.90;99.90;;;;;;20945994;28;20411;-74
2022/12/25 16:32:17;;;;;;;0.20;0.00;;;16.50;99.90;;;;;;21018079;28;21274;-72
2022/12/25 16:42:22;;;;;;;0.20;0.10;;;16.00;99.90;;;;;;21032205;28;20462;-72
2022/12/25 16:52:26;;;;;;;0.20;0.10;;;15.30;99.90;;;;;;21054530;28;20401;-71
2022/12/25 17:02:31;;;;;;;0.20;0.10;;;15.00;99.90;;;;;;21050797;28;20410;-71
2022/12/25 17:12:35;;;;;;;0.20;0.00;;;14.70;99.90;;;;;;21050120;28;20400;-70
2022/12/25 17:22:41;;;;;;;0.20;0.10;;;14.40;99.90;;;;;;21044441;28;20473;-68
2022/12/25 17:32:45;;;;;;;0.90;0.90;;;13.80;99.90;;;;;;21031988;28;20392;-72
2022/12/25 17:42:51;;;;;;;9.40;6.53;;;13.50;99.90;;;;;;21024759;28;20469;-69
2022/12/25 17:52:55;;;;;;;0.20;0.10;;;13.80;99.90;;;;;;21065729;28;20412;-71
2022/12/25 18:03:00;;;;;;;0.20;0.00;;;13.60;99.90;;;;;;21040480;28;20412;-73
2022/12/25 18:13:13;;;;;;;0.20;0.00;;;13.10;99.90;;;;;;21064043;28;20810;-71
2022/12/25 18:23:19;;;;;;;0.20;0.00;;;13.30;99.90;;;;;;21063384;28;20457;-71
2022/12/25 18:33:23;;;;;;;0.20;0.10;;;12.90;99.90;;;;;;20978031;28;20432;-74
2022/12/25 18:43:29;;;;;;;0.20;0.00;;;13.10;99.90;;;;;;20977242;28;20413;-72
2022/12/25 18:53:53;;;;;;;0.20;0.10;;;13.20;99.90;;;;;;20909024;28;20399;-73
2022/12/25 19:03:58;;;;;;;0.20;0.00;;;12.90;99.90;;;;;;20883760;28;20559;-71
2022/12/25 19:14:08;;;;;;;0.20;0.10;;;13.10;99.90;;;;;;20849254;28;20444;-72
2022/12/25 19:24:14;;;;;;;0.20;0.03;;;12.50;99.90;;;;;;20811401;28;20417;-72
2022/12/25 19:34:18;;;;;;;0.20;0.00;;;12.60;99.90;;;;;;20847619;28;20488;-72
2022/12/25 19:44:23;;;;;;;0.20;0.10;;;12.50;99.90;;;;;;20885506;28;20779;-72
2022/12/25 19:54:28;;;;;;;0.20;0.10;;;12.10;99.90;;;;;;20881164;28;20422;-69
2022/12/25 20:04:33;;;;;;;0.20;0.10;;;11.90;99.90;;;;;;20873380;28;20417;-70
2022/12/25 20:14:37;;;;;;;1.80;1.70;;;12.20;99.90;;;;;;20787800;28;20400;-69
2022/12/25 20:24:42;;;;;;;0.20;0.00;;;11.80;99.90;;;;;;20804422;28;20409;-72
2022/12/25 20:34:46;;;;;;;0.20;0.00;;;11.70;99.90;;;;;;20805418;28;20816;-71
2022/12/25 20:44:51;;;;;;;0.20;0.00;;;11.50;99.90;;;;;;20869752;28;20419;-71
2022/12/25 20:54:56;;;;;;;0.20;0.10;;;11.50;99.90;;;;;;20900493;28;20404;-71
2022/12/25 21:05:01;;;;;;;0.20;0.00;;;11.50;99.90;;;;;;20981189;28;20430;-71
2022/12/25 21:15:06;;;;;;;0.20;0.00;;;12.10;99.90;;;;;;20986666;28;20913;-71
2022/12/25 21:25:19;;;;;;;0.20;0.10;;;11.80;99.90;;;;;;20990466;28;20480;-70
2022/12/25 21:35:22;;;;;;;0.20;0.10;;;12.20;99.90;;;;;;21051291;28;20393;-71
2022/12/25 21:45:28;;;;;;;0.20;0.10;;;11.70;99.90;;;;;;21072164;28;20491;-72
2022/12/25 21:55:33;;;;;;;0.20;0.00;;;11.60;99.90;;;;;;21069160;28;20404;-70
2022/12/25 22:26:27;;;;;;;0.20;0.00;;;11.70;99.90;;;;;;21043347;28;20968;-72
2022/12/25 22:36:30;;;;;;;0.20;0.10;;;11.70;99.90;;;;;;21042118;28;20405;-72
2022/12/25 22:46:36;;;;;;;0.20;0.10;;;12.00;99.90;;;;;;20940197;28;20414;-71
2022/12/25 22:56:40;;;;;;;0.20;0.10;;;12.40;99.90;;;;;;20963752;28;20461;-71
2022/12/25 23:06:45;;;;;;;0.20;0.10;;;12.70;99.90;;;;;;20968979;28;20929;-72
2022/12/25 23:16:49;;;;;;;0.20;0.00;;;12.20;99.90;;;;;;20999601;28;20877;-71
2022/12/25 23:26:55;;;;;;;0.20;0.10;;;12.00;99.90;;;;;;21018273;28;20412;-72
2022/12/25 23:36:58;;;;;;;0.20;0.10;;;11.90;99.90;;;;;;21020572;28;20882;-71
2022/12/25 23:47:04;;;;;;;0.20;0.10;;;14.50;99.90;;;;;;20994365;28;20732;-72
2022/12/25 23:57:08;;;;;;;0.20;0.10;;;13.70;99.90;;;;;;21024502;28;20430;-70
